createdAt,value
2018-05-02T00:01:11.316Z,99.90
2018-05-02T00:03:38.979Z,99.90
2018-05-02T00:06:07.470Z,99.90
2018-05-02T00:08:35.163Z,99.90
2018-05-02T00:11:02.753Z,99.90
2018-05-02T00:13:30.434Z,99.90
2018-05-02T00:15:58.097Z,99.90
2018-05-02T00:18:29.522Z,99.90
2018-05-02T00:20:57.391Z,99.90
2018-05-02T00:23:25.122Z,99.90
2018-05-02T00:25:52.781Z,99.90
2018-05-02T00:28:21.211Z,99.90
2018-05-02T00:30:48.961Z,99.90
2018-05-02T00:33:16.695Z,99.90
2018-05-02T00:35:45.163Z,99.90
2018-05-02T00:38:13.655Z,99.90
2018-05-02T00:40:49.517Z,99.90
2018-05-02T00:43:17.157Z,99.90
2018-05-02T00:45:44.804Z,99.90
2018-05-02T00:48:12.610Z,99.90
2018-05-02T00:50:40.339Z,99.90
2018-05-02T00:53:08.893Z,99.90
2018-05-02T00:55:36.513Z,99.90
2018-05-02T00:58:04.182Z,99.90
2018-05-02T01:00:31.822Z,99.90
2018-05-02T01:03:00.820Z,99.90
2018-05-02T01:05:28.534Z,99.90
2018-05-02T01:07:56.190Z,99.90
2018-05-02T01:10:24.213Z,99.90
2018-05-02T01:12:51.883Z,99.90
2018-05-02T01:15:20.300Z,99.90
2018-05-02T01:17:48.022Z,99.90
2018-05-02T01:20:15.673Z,99.90
2018-05-02T01:22:43.448Z,99.90
2018-05-02T01:25:12.846Z,99.90
2018-05-02T01:27:40.497Z,99.90
2018-05-02T01:30:08.155Z,99.90
2018-05-02T01:32:35.778Z,99.90
2018-05-02T01:35:03.897Z,99.90
2018-05-02T01:37:31.588Z,99.90
2018-05-02T01:39:59.168Z,99.90
2018-05-02T01:42:26.826Z,99.90
2018-05-02T01:44:54.647Z,99.90
2018-05-02T01:47:23.280Z,99.90
2018-05-02T01:49:50.923Z,99.90
2018-05-02T01:52:18.585Z,99.90
2018-05-02T01:54:46.217Z,99.90
2018-05-02T01:57:13.941Z,99.90
2018-05-02T01:59:41.738Z,99.90
2018-05-02T02:02:09.421Z,99.90
2018-05-02T02:04:37.077Z,99.90
2018-05-02T02:07:04.671Z,99.90
2018-05-02T02:09:32.315Z,99.90
2018-05-02T02:12:00.103Z,99.90
2018-05-02T02:14:27.803Z,99.90
2018-05-02T02:16:57.751Z,99.90
2018-05-02T02:19:25.484Z,99.90
2018-05-02T02:21:53.165Z,99.90
2018-05-02T02:24:20.822Z,99.90
2018-05-02T02:26:48.481Z,99.90
2018-05-02T02:29:16.943Z,99.90
2018-05-02T02:31:44.603Z,99.90
2018-05-02T02:34:12.237Z,99.90
2018-05-02T02:36:39.837Z,99.90
2018-05-02T02:39:07.484Z,99.90
2018-05-02T02:41:35.358Z,99.90
2018-05-02T02:44:03.035Z,99.90
2018-05-02T02:46:34.524Z,99.90
2018-05-02T02:49:03.285Z,99.90
2018-05-02T02:51:31.801Z,99.90
2018-05-02T02:54:00.328Z,99.90
2018-05-02T02:56:28.195Z,99.90
2018-05-02T02:58:55.844Z,99.90
2018-05-02T03:01:24.497Z,99.90
2018-05-02T03:03:52.141Z,99.90
2018-05-02T03:06:21.071Z,99.90
2018-05-02T03:08:48.765Z,99.90
2018-05-02T03:11:17.778Z,99.90
2018-05-02T03:13:46.297Z,99.90
2018-05-02T03:16:13.953Z,99.90
2018-05-02T03:18:41.641Z,99.90
2018-05-02T03:21:09.350Z,99.90
2018-05-02T03:23:37.084Z,99.90
2018-05-02T03:26:05.908Z,99.90
2018-05-02T03:28:33.589Z,99.90
2018-05-02T03:31:01.282Z,99.90
2018-05-02T03:33:28.954Z,99.90
2018-05-02T03:35:56.574Z,99.90
2018-05-02T03:38:25.956Z,99.90
2018-05-02T03:40:54.380Z,99.90
2018-05-02T03:43:22.090Z,99.90
2018-05-02T03:45:50.608Z,99.90
2018-05-02T03:48:18.208Z,99.90
2018-05-02T03:50:45.847Z,99.90
2018-05-02T03:53:13.480Z,99.90
2018-05-02T03:55:41.305Z,99.90
2018-05-02T03:58:10.990Z,99.90
2018-05-02T04:00:55.112Z,99.90
2018-05-02T04:03:34.544Z,99.90
2018-05-02T04:06:13.063Z,99.90
2018-05-02T04:08:40.705Z,99.90
2018-05-02T04:11:08.392Z,99.90
2018-05-02T04:13:36.149Z,99.90
2018-05-02T04:16:03.935Z,99.90
2018-05-02T04:18:32.073Z,99.90
2018-05-02T04:23:54.244Z,99.90
2018-05-02T04:26:22.658Z,99.90
2018-05-02T04:28:50.345Z,99.90
2018-05-02T04:31:28.079Z,99.90
2018-05-02T04:33:56.379Z,99.90
2018-05-02T04:36:24.039Z,99.90
2018-05-02T04:38:51.695Z,99.90
2018-05-02T04:41:19.406Z,99.90
2018-05-02T04:43:47.072Z,99.90
2018-05-02T04:46:18.007Z,99.90
2018-05-02T04:48:45.645Z,99.90
2018-05-02T04:51:13.269Z,99.90
2018-05-02T04:53:40.917Z,99.90
2018-05-02T04:56:08.597Z,99.90
2018-05-02T04:58:36.219Z,99.90
2018-05-02T05:01:03.816Z,99.90
2018-05-02T05:03:31.455Z,99.90
2018-05-02T05:05:59.040Z,99.90
2018-05-02T05:08:35.326Z,99.90
2018-05-02T05:11:02.998Z,99.90
2018-05-02T05:13:30.634Z,99.90
2018-05-02T05:15:58.245Z,99.90
2018-05-02T05:18:25.924Z,99.90
2018-05-02T05:20:53.731Z,99.90
2018-05-02T05:27:25.683Z,99.90
2018-05-02T05:29:54.472Z,99.90
2018-05-02T05:32:23.885Z,99.90
2018-05-02T05:34:52.679Z,99.90
2018-05-02T05:37:20.417Z,99.90
2018-05-02T05:39:49.205Z,99.90
2018-05-02T05:42:16.867Z,99.90
2018-05-02T06:09:09.275Z,99.90
2018-05-02T06:11:36.846Z,99.90
2018-05-02T06:14:04.472Z,99.90
2018-05-02T06:16:32.902Z,99.90
2018-05-02T06:19:00.470Z,99.90
2018-05-02T06:21:28.114Z,99.90
2018-05-02T06:23:55.773Z,99.90
2018-05-02T06:26:23.406Z,99.90
2018-05-02T06:28:52.392Z,99.90
2018-05-02T06:31:21.775Z,99.90
2018-05-02T06:33:50.186Z,99.90
2018-05-02T06:36:17.782Z,99.90
2018-05-02T06:38:45.422Z,99.90
2018-05-02T06:41:12.988Z,99.90
2018-05-02T06:43:41.374Z,99.90
2018-05-02T06:46:09.005Z,99.90
2018-05-02T06:48:36.584Z,99.90
2018-05-02T06:51:05.016Z,99.90
2018-05-02T06:53:32.612Z,99.90
2018-05-02T06:56:00.232Z,99.90
2018-05-02T06:58:27.840Z,99.90
2018-05-02T07:00:55.489Z,99.90
2018-05-02T07:03:23.103Z,99.90
2018-05-02T07:05:50.748Z,99.90
2018-05-02T07:08:18.316Z,99.90
2018-05-02T07:10:45.965Z,99.90
2018-05-02T07:13:15.481Z,99.90
2018-05-02T07:15:43.121Z,99.90
2018-05-02T07:18:10.741Z,99.90
2018-05-02T07:20:39.158Z,99.90
2018-05-02T07:23:07.511Z,99.90
2018-05-02T07:25:35.884Z,99.90
2018-05-02T07:28:04.264Z,99.90
2018-05-02T07:30:32.643Z,99.90
2018-05-02T07:33:01.026Z,99.90
2018-05-02T07:35:29.625Z,99.90
2018-05-02T07:37:57.217Z,99.90
2018-05-02T07:40:24.859Z,99.90
2018-05-02T07:42:52.427Z,99.90
2018-05-02T07:45:20.115Z,99.90
2018-05-02T07:47:47.729Z,99.90
2018-05-02T07:50:15.416Z,99.90
2018-05-02T07:52:43.063Z,99.90
2018-05-02T07:55:10.711Z,99.90
2018-05-02T07:57:38.334Z,99.90
2018-05-02T08:00:05.859Z,99.90
2018-05-02T08:02:33.472Z,99.90
2018-05-02T08:05:02.183Z,99.90
2018-05-02T08:07:29.826Z,99.90
2018-05-02T08:09:58.195Z,99.90
2018-05-02T08:12:25.856Z,99.90
2018-05-02T08:14:53.477Z,99.90
2018-05-02T08:17:21.131Z,99.90
2018-05-02T08:19:49.792Z,99.90
2018-05-02T08:22:17.400Z,99.90
2018-05-02T08:24:45.027Z,98.00
2018-05-02T08:27:12.642Z,99.40
2018-05-02T08:29:40.267Z,99.80
2018-05-02T08:32:07.886Z,99.80
2018-05-02T08:34:36.201Z,96.80
2018-05-02T08:37:03.819Z,96.80
2018-05-02T08:39:32.122Z,96.00
2018-05-02T08:42:00.256Z,96.00
2018-05-02T08:44:27.813Z,95.10
2018-05-02T08:46:55.430Z,92.90
2018-05-02T08:49:23.018Z,94.30
2018-05-02T08:51:50.628Z,93.40
2018-05-02T08:54:18.188Z,92.60
2018-05-02T08:56:45.818Z,93.40
2018-05-02T08:59:13.420Z,92.60
2018-05-02T09:01:41.056Z,91.90
2018-05-02T09:04:10.798Z,93.50
2018-05-02T09:06:38.392Z,93.40
2018-05-02T09:09:06.012Z,92.10
2018-05-02T09:11:33.646Z,91.80
2018-05-02T09:14:02.000Z,89.10
2018-05-02T09:16:30.198Z,89.20
2018-05-02T09:18:58.589Z,87.50
2018-05-02T09:21:26.526Z,87.40
2018-05-02T09:23:55.795Z,89.40
2018-05-02T09:26:24.899Z,88.80
2018-05-02T09:28:52.446Z,85.50
2018-05-02T09:31:21.711Z,85.00
2018-05-02T09:33:50.057Z,82.60
2018-05-02T09:36:17.639Z,82.60
2018-05-02T09:38:46.033Z,78.70
2018-05-02T09:41:13.614Z,78.80
2018-05-02T09:43:41.264Z,81.80
2018-05-02T09:46:11.506Z,84.10
2018-05-02T09:48:45.882Z,82.70
2018-05-02T09:51:14.243Z,82.70
2018-05-02T09:53:41.915Z,82.80
2018-05-02T09:56:09.445Z,81.60
2018-05-02T09:58:37.015Z,80.50
2018-05-02T10:01:04.591Z,83.10
2018-05-02T10:03:32.188Z,80.60
2018-05-02T10:05:59.730Z,79.50
2018-05-02T10:08:27.335Z,85.40
2018-05-02T10:10:56.996Z,85.40
2018-05-02T10:13:25.435Z,79.00
2018-05-02T10:15:53.077Z,79.20
2018-05-02T10:18:20.671Z,83.70
2018-05-02T10:20:48.230Z,80.40
2018-05-02T10:23:15.856Z,80.00
2018-05-02T10:25:43.470Z,81.20
2018-05-02T10:28:11.017Z,75.90
2018-05-02T10:30:38.621Z,78.70
2018-05-02T10:33:06.258Z,73.10
2018-05-02T10:35:34.647Z,74.00
2018-05-02T10:38:02.986Z,68.10
2018-05-02T10:40:30.569Z,67.80
2018-05-02T10:42:58.989Z,73.50
2018-05-02T10:45:27.482Z,73.80
2018-05-02T10:47:55.128Z,68.50
2018-05-02T10:50:22.775Z,74.60
2018-05-02T10:52:50.373Z,70.70
2018-05-02T10:55:17.960Z,64.90
2018-05-02T10:57:45.588Z,64.50
2018-05-02T11:00:13.229Z,65.60
2018-05-02T11:02:40.861Z,62.40
2018-05-02T11:05:09.232Z,65.90
2018-05-02T11:07:36.849Z,66.00
2018-05-02T11:10:04.392Z,64.80
2018-05-02T11:12:31.982Z,68.00
2018-05-02T11:14:59.607Z,65.80
2018-05-02T11:17:30.624Z,67.10
2018-05-02T11:19:58.993Z,64.80
2018-05-02T11:22:26.713Z,64.60
2018-05-02T11:24:55.047Z,66.90
2018-05-02T11:27:23.394Z,64.80
2018-05-02T11:29:51.003Z,64.60
2018-05-02T11:32:18.600Z,62.50
2018-05-02T11:34:46.225Z,65.20
2018-05-02T11:37:13.789Z,65.30
2018-05-02T11:39:47.258Z,66.40
2018-05-02T11:42:15.571Z,63.70
2018-05-02T11:44:43.190Z,63.20
2018-05-02T11:47:10.837Z,67.40
2018-05-02T11:49:38.444Z,65.30
2018-05-02T11:52:06.020Z,67.20
2018-05-02T11:54:33.619Z,66.20
2018-05-02T11:57:01.169Z,70.40
2018-05-02T11:59:28.785Z,68.70
2018-05-02T12:01:57.196Z,69.50
2018-05-02T12:04:24.814Z,67.70
2018-05-02T12:06:53.202Z,70.20
2018-05-02T12:09:20.801Z,70.60
2018-05-02T12:11:50.278Z,69.00
2018-05-02T12:14:17.880Z,68.90
2018-05-02T12:16:45.986Z,68.60
2018-05-02T12:19:14.312Z,65.80
2018-05-02T12:21:41.924Z,65.70
2018-05-02T12:24:11.324Z,67.40
2018-05-02T12:26:39.715Z,69.00
2018-05-02T12:29:08.082Z,65.10
2018-05-02T12:31:36.415Z,65.60
2018-05-02T12:34:04.057Z,65.80
2018-05-02T12:36:31.628Z,65.80
2018-05-02T12:38:59.304Z,65.60
2018-05-02T12:41:26.914Z,66.80
2018-05-02T12:43:55.293Z,69.90
2018-05-02T12:46:23.657Z,67.30
2018-05-02T12:48:51.269Z,67.00
2018-05-02T12:51:18.895Z,70.70
2018-05-02T12:53:46.515Z,74.00
2018-05-02T12:56:14.209Z,71.80
2018-05-02T12:58:41.853Z,71.80
2018-05-02T13:01:09.508Z,72.80
2018-05-02T13:03:37.039Z,71.60
2018-05-02T13:06:04.690Z,70.50
2018-05-02T13:08:33.178Z,72.70
2018-05-02T13:11:00.819Z,70.20
2018-05-02T13:13:28.437Z,71.10
2018-05-02T13:15:59.091Z,74.30
2018-05-02T13:18:26.732Z,73.00
2018-05-02T13:20:54.280Z,74.10
2018-05-02T13:23:21.905Z,72.60
2018-05-02T13:25:50.315Z,73.70
2018-05-02T13:28:17.937Z,73.00
2018-05-02T13:30:59.927Z,75.30
2018-05-02T13:33:27.579Z,75.30
2018-05-02T13:35:55.147Z,74.60
2018-05-02T13:38:22.778Z,73.20
2018-05-02T13:40:50.345Z,71.90
2018-05-02T13:43:17.975Z,73.70
2018-05-02T13:45:45.563Z,73.20
2018-05-02T13:48:13.143Z,72.00
2018-05-02T13:50:41.573Z,76.10
2018-05-02T13:53:09.295Z,76.30
2018-05-02T13:55:37.115Z,72.80
2018-05-02T13:58:04.675Z,72.00
2018-05-02T14:00:32.309Z,74.80
2018-05-02T14:02:59.891Z,74.90
2018-05-02T14:05:27.546Z,71.30
2018-05-02T14:07:55.176Z,73.20
2018-05-02T14:10:22.805Z,73.40
2018-05-02T14:12:50.818Z,72.30
2018-05-02T14:15:18.557Z,70.90
2018-05-02T14:17:46.155Z,69.80
2018-05-02T14:20:13.833Z,73.00
2018-05-02T14:22:41.455Z,72.20
2018-05-02T14:25:09.098Z,73.10
2018-05-02T14:27:36.754Z,74.60
2018-05-02T14:30:04.574Z,79.50
2018-05-02T14:32:32.199Z,78.20
2018-05-02T14:34:59.806Z,81.10
2018-05-02T14:37:27.539Z,84.80
2018-05-02T14:39:55.138Z,83.90
2018-05-02T14:42:22.824Z,87.80
2018-05-02T14:44:50.390Z,90.60
2018-05-02T14:47:18.748Z,93.20
2018-05-02T14:49:46.375Z,93.40
2018-05-02T14:52:13.935Z,92.30
2018-05-02T14:54:41.583Z,92.90
2018-05-02T14:57:09.916Z,91.50
2018-05-02T14:59:37.981Z,91.60
2018-05-02T15:02:05.811Z,86.90
2018-05-02T15:04:33.255Z,91.10
2018-05-02T15:07:00.828Z,87.00
2018-05-02T15:09:28.412Z,88.00
2018-05-02T15:11:56.035Z,90.90
2018-05-02T15:14:23.634Z,89.00
2018-05-02T15:16:52.056Z,88.20
2018-05-02T15:19:19.659Z,88.20
2018-05-02T15:21:59.771Z,85.00
2018-05-02T15:24:27.343Z,85.50
2018-05-02T15:26:54.968Z,88.20
2018-05-02T15:29:22.613Z,89.50
2018-05-02T15:31:50.274Z,90.60
2018-05-02T15:34:17.859Z,88.40
2018-05-02T15:36:45.468Z,89.00
2018-05-02T15:39:13.077Z,89.60
2018-05-02T15:41:41.477Z,89.70
2018-05-02T15:44:10.050Z,90.10
2018-05-02T15:46:37.655Z,90.10
2018-05-02T15:49:05.238Z,90.50
2018-05-02T15:51:32.810Z,90.70
2018-05-02T15:54:00.414Z,89.80
2018-05-02T15:56:27.996Z,89.60
2018-05-02T15:58:55.581Z,90.80
2018-05-02T16:01:24.060Z,88.20
2018-05-02T16:03:51.661Z,90.10
2018-05-02T16:06:20.878Z,88.90
2018-05-02T16:08:48.522Z,90.80
2018-05-02T16:11:16.878Z,91.10
2018-05-02T16:13:44.432Z,91.10
2018-05-02T16:16:12.060Z,92.10
2018-05-02T16:18:39.642Z,93.50
2018-05-02T16:21:07.237Z,94.10
2018-05-02T16:23:34.871Z,97.30
2018-05-02T16:26:02.502Z,98.70
2018-05-02T16:28:33.848Z,99.90
2018-05-02T16:31:01.465Z,99.90
2018-05-02T16:33:29.109Z,99.90
2018-05-02T16:35:56.750Z,99.90
2018-05-02T16:38:24.367Z,99.90
2018-05-02T16:40:51.975Z,99.90
2018-05-02T16:43:19.590Z,99.90
2018-05-02T16:45:47.254Z,99.90
2018-05-02T16:48:14.830Z,99.90
2018-05-02T16:50:43.103Z,99.90
2018-05-02T16:53:10.652Z,99.90
2018-05-02T16:55:38.284Z,99.90
2018-05-02T16:58:05.872Z,99.90
2018-05-02T17:00:33.505Z,99.90
2018-05-02T17:03:01.941Z,99.90
2018-05-02T17:05:29.571Z,99.90
2018-05-02T17:07:58.001Z,99.90
2018-05-02T17:10:25.646Z,99.90
2018-05-02T17:12:53.270Z,99.90
2018-05-02T17:15:21.639Z,99.90
2018-05-02T17:17:50.083Z,99.90
2018-05-02T17:20:25.751Z,99.90
2018-05-02T17:26:18.560Z,99.90
2018-05-02T17:31:40.865Z,99.90
2018-05-02T17:34:12.226Z,99.90
2018-05-02T17:36:40.660Z,99.90
2018-05-02T17:39:08.318Z,99.90
2018-05-02T17:41:38.793Z,99.90
2018-05-02T17:44:06.940Z,99.90
2018-05-02T17:46:35.463Z,99.90
2018-05-02T17:49:06.754Z,99.90
2018-05-02T17:51:34.451Z,99.90
2018-05-02T17:54:02.864Z,99.90
2018-05-02T17:56:31.815Z,99.90
2018-05-02T18:01:52.585Z,99.90
2018-05-02T18:04:20.225Z,99.90
2018-05-02T18:06:47.849Z,99.90
2018-05-02T18:09:24.247Z,99.90
2018-05-02T18:11:52.952Z,99.90
2018-05-02T18:14:25.953Z,99.90
2018-05-02T18:16:53.552Z,99.90
2018-05-02T18:19:21.234Z,99.90
2018-05-02T18:21:48.872Z,99.90
2018-05-02T18:24:16.507Z,99.90
2018-05-02T18:26:44.860Z,99.90
2018-05-02T18:29:12.539Z,99.90
2018-05-02T18:31:40.185Z,99.90
2018-05-02T18:34:11.124Z,99.90
2018-05-02T18:36:38.889Z,99.90
2018-05-02T18:39:07.236Z,99.90
2018-05-02T18:41:40.299Z,99.90
2018-05-02T18:44:10.014Z,99.90
2018-05-02T18:46:37.728Z,99.90
2018-05-02T18:49:05.452Z,99.90
2018-05-02T18:51:33.161Z,99.90
2018-05-02T18:54:00.815Z,99.90
2018-05-02T18:56:28.655Z,99.90
2018-05-02T18:58:56.344Z,99.90
2018-05-02T19:01:25.003Z,99.90
2018-05-02T19:03:52.701Z,99.90
2018-05-02T19:06:20.568Z,99.90
2018-05-02T19:08:48.267Z,99.90
2018-05-02T19:11:16.783Z,99.90
2018-05-02T19:13:50.059Z,99.90
2018-05-02T19:16:17.724Z,99.90
2018-05-02T19:18:51.825Z,99.90
2018-05-02T19:21:19.632Z,99.90
2018-05-02T19:23:47.354Z,99.90
2018-05-02T19:26:22.277Z,99.90
2018-05-02T19:28:50.764Z,99.90
2018-05-02T19:31:24.785Z,99.90
2018-05-02T19:33:53.913Z,99.90
2018-05-02T19:36:21.553Z,99.90
2018-05-02T19:38:49.190Z,99.90
2018-05-02T19:41:22.438Z,99.90
2018-05-02T19:43:55.739Z,99.90
2018-05-02T19:46:24.803Z,99.90
2018-05-02T19:48:52.619Z,99.90
2018-05-02T19:51:25.759Z,99.90
2018-05-02T19:53:53.543Z,99.90
2018-05-02T19:56:21.314Z,99.90
2018-05-02T19:58:49.029Z,99.90
2018-05-02T20:01:22.741Z,99.90
2018-05-02T20:03:52.065Z,99.90
2018-05-02T20:06:22.329Z,99.90
2018-05-02T20:08:57.673Z,99.90
2018-05-02T20:11:31.133Z,99.90
2018-05-02T20:14:11.758Z,99.90
2018-05-02T20:16:40.369Z,99.90
2018-05-02T20:19:09.023Z,99.90
2018-05-02T20:24:14.340Z,99.90
2018-05-02T20:26:42.071Z,99.90
2018-05-02T20:29:13.988Z,99.90
2018-05-02T20:31:43.575Z,99.90
2018-05-02T20:34:13.199Z,99.90
2018-05-02T20:36:40.912Z,99.90
2018-05-02T20:39:08.555Z,99.90
2018-05-02T20:41:36.224Z,99.90
2018-05-02T20:44:04.666Z,99.90
2018-05-02T20:46:32.580Z,99.90
2018-05-02T20:49:00.301Z,99.90
2018-05-02T20:51:28.052Z,99.90
2018-05-02T20:53:57.307Z,99.90
2018-05-02T20:56:25.187Z,99.90
2018-05-02T20:58:52.849Z,99.90
2018-05-02T21:01:20.578Z,99.90
2018-05-02T21:03:48.988Z,99.90
2018-05-02T21:06:18.001Z,99.90
2018-05-02T21:08:46.413Z,99.90
2018-05-02T21:11:14.810Z,99.90
2018-05-02T21:13:42.432Z,99.90
2018-05-02T21:16:10.147Z,99.90
2018-05-02T21:18:37.731Z,99.90
2018-05-02T21:21:05.407Z,99.90
2018-05-02T21:23:32.996Z,99.90
2018-05-02T21:26:01.437Z,99.90
2018-05-02T21:28:29.048Z,99.90
2018-05-02T21:30:56.699Z,99.90
2018-05-02T21:33:25.174Z,99.90
2018-05-02T21:35:52.815Z,99.90
2018-05-02T21:38:20.473Z,99.90
2018-05-02T21:40:48.124Z,99.90
2018-05-02T21:43:15.925Z,99.90
2018-05-02T21:45:43.584Z,99.90
2018-05-02T21:48:11.228Z,99.90
2018-05-02T21:50:39.639Z,99.90
2018-05-02T21:53:07.293Z,99.90
2018-05-02T21:55:35.081Z,99.90
2018-05-02T21:58:02.718Z,99.90
2018-05-02T22:00:31.147Z,99.90
2018-05-02T22:02:58.749Z,99.90
2018-05-02T22:05:26.459Z,99.90
2018-05-02T22:07:54.210Z,99.90
2018-05-02T22:10:21.849Z,99.90
2018-05-02T22:12:49.596Z,99.90
2018-05-02T22:15:17.221Z,99.90
2018-05-02T22:17:44.985Z,99.90
2018-05-02T22:20:13.374Z,99.90
2018-05-02T22:22:40.990Z,99.90
2018-05-02T22:25:08.586Z,99.90
2018-05-02T22:27:36.198Z,99.90
2018-05-02T22:30:03.819Z,99.90
2018-05-02T22:32:31.430Z,99.90
2018-05-02T22:35:00.731Z,99.90
2018-05-02T22:37:28.384Z,99.90
2018-05-02T22:39:56.018Z,99.90
2018-05-02T22:42:23.612Z,99.90
2018-05-02T22:44:51.478Z,99.90
2018-05-02T22:47:19.095Z,99.90
2018-05-02T22:49:46.725Z,99.90
2018-05-02T22:52:14.328Z,99.90
2018-05-02T22:54:41.954Z,99.90
2018-05-02T22:57:10.463Z,99.90
2018-05-02T22:59:38.907Z,99.90
2018-05-02T23:02:06.462Z,99.90
2018-05-02T23:04:34.103Z,99.90
2018-05-02T23:07:01.677Z,99.90
2018-05-02T23:09:29.357Z,99.90
2018-05-02T23:11:56.947Z,99.90
2018-05-02T23:14:25.356Z,99.90
2018-05-02T23:16:53.073Z,99.90
2018-05-02T23:19:28.174Z,99.90
2018-05-02T23:21:55.817Z,99.90
2018-05-02T23:24:23.461Z,99.90
2018-05-02T23:26:51.078Z,99.90
2018-05-02T23:29:18.751Z,99.90
2018-05-02T23:31:46.376Z,99.90
2018-05-02T23:34:13.976Z,99.90
2018-05-02T23:36:41.586Z,99.90
2018-05-02T23:39:09.224Z,99.90
2018-05-02T23:41:37.157Z,99.90
2018-05-02T23:44:04.807Z,99.90
2018-05-02T23:46:32.432Z,99.90
2018-05-02T23:49:00.836Z,99.90
2018-05-02T23:51:28.512Z,99.90
2018-05-02T23:53:56.201Z,99.90
2018-05-02T23:56:23.878Z,99.90
2018-05-02T23:58:51.481Z,99.90
